Data for 11/09/2016

Time Sea-Level Adjusted Pressure Absolute Pressure Temperature Relative Humidity Dew Point   
(mb) (inHg) (mb) (inHg) (C) (F) (%) (C) (F)
00:05 1027 30.33 856 25.28 8.3 46.9 45 -2.8 26.9
00:10 1027 30.33 856 25.28 8.2 46.8 45 -2.9 26.8
00:15 1027 30.33 856 25.28 8 46.3 47 -2.7 27.2
00:20 1027 30.33 856 25.28 7.7 45.8 48 -2.5 27.5
00:25 1027 30.33 856 25.28 7.7 45.9 47 -3 26.6
00:30 1027 30.33 856 25.28 8.5 47.4 44 -3 26.6
00:35 1027 30.33 856 25.28 8.7 47.7 44 -2.8 26.9
00:40 1027 30.33 856 25.28 8.6 47.5 44 -2.8 26.9
00:45 1027 30.33 856 25.28 8.6 47.4 44 -3 26.6
00:50 1027 30.33 856 25.28 8.5 47.3 47 -2.2 28.1
00:55 1027 30.33 856 25.28 7.9 46.2 48 -2.3 27.8
01:00 1027 30.33 856 25.28 7.7 45.9 48 -2.5 27.5
01:05 1027 30.33 856 25.28 7.9 46.2 46 -3 26.7
01:10 1027 30.33 856 25.28 8.3 47 46 -2.6 27.3
01:15 1027 30.33 856 25.28 8.1 46.6 47 -2.6 27.3
01:20 1027 30.33 856 25.28 7.8 46 46 -3 26.6
01:25 1027 30.33 856 25.28 8.1 46.6 44 -3.2 26.2
01:30 1027 30.33 856 25.28 8.4 47.1 48 -1.9 28.6
01:35 1027 30.33 856 25.28 7.8 46 50 -1.8 28.7
01:40 1027 30.33 856 25.28 7.3 45.1 52 -1.8 28.7
01:45 1027 30.33 856 25.28 7.2 44.9 50 -2.5 27.6
01:50 1027 30.33 856 25.28 7.6 45.6 50 -2.1 28.2
01:55 1026 30.3 856 25.28 7.4 45.4 51 -2 28.4
02:00 1026 30.3 856 25.28 7.4 45.2 51 -2.1 28.2
02:05 1026 30.3 856 25.28 7.2 44.9 52 -1.9 28.6
02:10 1027 30.33 856 25.28 7.1 44.7 51 -2.4 27.6
02:15 1027 30.33 856 25.28 7.3 45.2 51 -2 28.3
02:20 1027 30.33 856 25.28 6.8 44.2 52 -2.4 27.7
02:25 1027 30.33 856 25.28 6.9 44.5 49 -3 26.7
02:30 1027 30.33 856 25.28 7.4 45.2 51 -2.2 28
02:35 1027 30.33 856 25.28 7.1 44.8 53 -1.9 28.7
02:40 1027 30.33 856 25.28 6.9 44.4 53 -2 28.4
02:45 1027 30.33 856 25.28 7 44.6 53 -1.9 28.6
02:50 1027 30.33 856 25.28 6.7 44.1 54 -2 28.4
02:55 1027 30.33 856 25.28 6.4 43.5 55 -2.1 28.3
03:00 1027 30.33 856 25.28 6.5 43.7 55 -1.9 28.7
03:05 1027 30.33 856 25.28 6.4 43.5 52 -2.8 27
03:10 1027 30.33 856 25.28 6.3 43.3 53 -2.5 27.5
03:15 1027 30.33 856 25.28 6 42.8 54 -2.5 27.5
03:20 1026 30.3 856 25.28 5.8 42.4 55 -2.4 27.6
03:25 1026 30.3 856 25.28 5.8 42.4 55 -2.6 27.3
03:30 1026 30.3 856 25.28 5.9 42.7 54 -2.8 27
03:35 1026 30.3 856 25.28 6.2 43.1 53 -2.6 27.2
03:40 1026 30.3 856 25.28 6.1 42.9 54 -2.6 27.4
03:45 1026 30.3 856 25.28 5.9 42.7 56 -2.3 27.9
03:50 1026 30.3 855 25.25 5.9 42.6 53 -2.9 26.7
03:55 1026 30.3 855 25.25 6.5 43.7 51 -3 26.5
04:00 1026 30.3 855 25.25 6.6 44 52 -2.6 27.3
04:05 1026 30.3 855 25.25 6.5 43.7 51 -2.9 26.8
04:10 1026 30.3 855 25.25 6.3 43.4 51 -3.1 26.5
04:15 1026 30.3 855 25.25 6.1 43 51 -3.2 26.2
04:20 1026 30.3 855 25.25 6.2 43.1 50 -3.4 25.8
04:25 1026 30.3 855 25.25 6.3 43.3 50 -3.4 25.9
04:30 1026 30.3 855 25.25 6.5 43.6 50 -3.1 26.3
04:35 1026 30.3 855 25.25 6.2 43.2 52 -3 26.7
04:40 1026 30.3 855 25.25 6.2 43.2 52 -2.9 26.7
04:45 1026 30.3 855 25.25 6.1 43 54 -2.5 27.5
04:50 1026 30.3 855 25.25 6.4 43.5 52 -2.7 27.1
04:55 1026 30.3 855 25.25 6.5 43.6 51 -2.9 26.8
05:00 1026 30.3 855 25.25 6.7 44 48 -3.6 25.5
05:05 1026 30.3 855 25.25 7 44.7 48 -3.2 26.2
05:10 1026 30.3 855 25.25 6.9 44.4 48 -3.4 25.9
05:15 1026 30.3 855 25.25 6.7 44.1 49 -3.1 26.4
05:20 1026 30.3 855 25.25 6.6 43.9 50 -3.2 26.2
05:25 1026 30.3 855 25.25 6.5 43.7 50 -3.2 26.2
05:30 1026 30.3 855 25.25 6.5 43.8 51 -3 26.6
05:35 1026 30.3 855 25.25 6.5 43.7 52 -2.7 27.1
05:40 1026 30.3 855 25.25 6.1 42.9 54 -2.6 27.3
05:45 1026 30.3 855 25.25 6.1 42.9 55 -2.4 27.7
05:50 1026 30.3 855 25.25 6.2 43.1 54 -2.5 27.5
05:55 1026 30.3 855 25.25 6.3 43.4 58 -1.3 29.6
06:00 1026 30.3 855 25.25 5.9 42.6 55 -2.4 27.6
06:05 1026 30.3 855 25.25 6.3 43.3 55 -2.1 28.2
06:10 1026 30.3 855 25.25 6.5 43.8 55 -1.9 28.5
06:15 1026 30.3 855 25.25 6.7 44.1 54 -1.9 28.6
06:20 1026 30.3 855 25.25 6.8 44.3 54 -1.7 28.9
06:25 1026 30.3 855 25.25 7.1 44.8 52 -2 28.3
06:30 1026 30.3 855 25.25 7.5 45.5 51 -1.9 28.5
06:35 1026 30.3 855 25.25 7.4 45.3 53 -1.6 29.1
06:40 1026 30.3 855 25.25 7.3 45.1 53 -1.7 29
06:45 1026 30.3 855 25.25 7 44.6 55 -1.4 29.5
06:50 1026 30.3 855 25.25 6.5 43.7 56 -1.5 29.2
06:55 1026 30.3 855 25.25 6 42.9 58 -1.5 29.2
07:00 1026 30.3 855 25.25 5.8 42.5 54 -2.7 27.2
07:05 1026 30.3 855 25.25 5.9 42.6 54 -2.7 27.2
07:10 1026 30.3 855 25.25 6.2 43.1 52 -3 26.6
07:15 1026 30.3 855 25.25 6.5 43.7 50 -3.2 26.2
07:20 1026 30.3 855 25.25 6.5 43.8 49 -3.4 25.9
07:25 1026 30.3 855 25.25 6.6 43.8 49 -3.3 26
07:30 1026 30.3 855 25.25 6.4 43.5 51 -3 26.6
07:35 1026 30.3 855 25.25 6.3 43.4 50 -3.3 26.1
07:40 1026 30.3 855 25.25 6.4 43.6 49 -3.4 25.8
07:45 1026 30.3 855 25.25 6.7 44.1 49 -3.3 26.1
07:50 1026 30.3 855 25.25 7.1 44.7 48 -3.1 26.5
07:55 1026 30.3 855 25.25 7.2 45 47 -3.3 26
08:00 1026 30.3 855 25.25 7.6 45.8 44 -3.7 25.3
08:05 1026 30.3 855 25.25 8.1 46.6 44 -3.4 25.8
08:10 1026 30.3 855 25.25 8.2 46.7 44 -3.3 26
08:15 1026 30.3 855 25.25 8.3 46.9 44 -3.4 26
08:20 1026 30.3 855 25.25 8.6 47.5 43 -3.3 26
08:25 1026 30.3 855 25.25 9.1 48.4 41 -3.4 25.9
08:30 1026 30.3 855 25.25 9.4 49 44 -2.2 28
08:35 1026 30.3 855 25.25 8.3 47 47 -2.4 27.7
08:40 1026 30.3 855 25.25 8 46.4 47 -2.6 27.3
08:45 1026 30.3 855 25.25 8.3 46.9 47 -2.4 27.7
08:50 1026 30.3 855 25.25 8.4 47.2 47 -2.2 28
08:55 1026 30.3 855 25.25 8.2 46.7 48 -2.2 28.1
09:00 1026 30.3 856 25.28 8.5 47.3 47 -2.2 28.1
09:05 1026 30.3 856 25.28 8.7 47.7 46 -2.1 28.2
09:10 1026 30.3 856 25.28 8.8 47.8 46 -2.1 28.3
09:15 1026 30.3 856 25.28 8.7 47.6 46 -2.2 28.1
09:20 1026 30.3 856 25.28 8.9 48 45 -2.3 27.8
09:25 1026 30.3 856 25.28 9.3 48.7 44 -2.3 27.8
09:30 1026 30.3 856 25.28 9.4 48.9 44 -2.3 27.8
09:35 1026 30.3 856 25.28 9.5 49.2 43 -2.3 27.9
09:40 1026 30.3 856 25.28 10.2 50.3 40 -2.6 27.3
09:45 1026 30.3 856 25.28 10.9 51.6 39 -2.5 27.4
09:50 1027 30.33 856 25.28 11 51.8 40 -2.2 28.1
09:55 1026 30.3 856 25.28 10.8 51.4 40 -2.3 27.9
10:00 1026 30.3 856 25.28 11.3 52.4 37 -2.9 26.8
10:05 1026 30.3 856 25.28 11.5 52.6 38 -2.4 27.7
10:10 1027 30.33 856 25.28 11.4 52.5 38 -2.5 27.5
10:15 1026 30.3 856 25.28 11.5 52.7 38 -2.4 27.8
10:20 1026 30.3 856 25.28 11.5 52.6 36 -2.9 26.7
10:25 1026 30.3 856 25.28 12.1 53.8 34 -3.1 26.5
10:30 1026 30.3 856 25.28 13.1 55.5 32 -3.2 26.2
10:35 1026 30.3 856 25.28 13.9 57 31 -2.9 26.8
10:40 1026 30.3 856 25.28 14.5 58 31 -2.5 27.5
10:45 1026 30.3 856 25.28 14.8 58.6 30 -2.4 27.6
10:50 1026 30.3 856 25.28 14.4 58 31 -2.3 27.8
10:55 1026 30.3 856 25.28 14.6 58.4 31 -2.4 27.7
11:00 1026 30.3 855 25.25 14.7 58.5 31 -2.3 27.9
11:05 1026 30.3 855 25.25 14.5 58.1 32 -1.7 28.9
11:10 1026 30.3 855 25.25 14.3 57.7 32 -2.3 27.8
11:15 1026 30.3 855 25.25 14.8 58.6 31 -2 28.4
11:20 1026 30.3 855 25.25 15.1 59.2 31 -1.7 28.9
11:25 1026 30.3 855 25.25 14.7 58.5 31 -2 28.4
11:30 1026 30.3 855 25.25 15.1 59.2 30 -2 28.4
11:35 1026 30.3 855 25.25 15.7 60.2 30 -1.9 28.6
11:40 1026 30.3 855 25.25 15.6 60.2 30 -1.7 29
11:45 1026 30.3 855 25.25 15.6 60.1 30 -1.7 28.9
11:50 1026 30.3 855 25.25 16.1 61 29 -1.6 29.1
11:55 1026 30.3 855 25.25 16.4 61.6 30 -1.2 29.8
12:00 1025 30.27 855 25.25 16.4 61.5 29 -1.7 28.9
12:05 1025 30.27 855 25.25 16.3 61.4 29 -1.7 29
12:10 1025 30.27 854 25.22 16.7 62.1 28 -1.6 29.2
12:15 1025 30.27 854 25.22 17 62.5 29 -1.3 29.7
12:20 1025 30.27 854 25.22 17.2 63 27 -1.7 28.9
12:25 1025 30.27 854 25.22 17.8 64 26 -1.8 28.8
12:30 1025 30.27 854 25.22 17.8 64.1 25 -2.1 28.2
12:35 1025 30.27 854 25.22 18.1 64.5 26 -1.7 29
12:40 1025 30.27 854 25.22 17.8 64.1 26 -1.9 28.6
12:45 1025 30.27 854 25.22 17.9 64.2 26 -1.7 29
12:50 1025 30.27 854 25.22 18.4 65.1 25 -1.6 29.1
12:55 1025 30.27 854 25.22 19 66.1 25 -1.6 29.1
13:00 1025 30.27 854 25.22 19.4 67 24 -1.4 29.5
13:05 1025 30.27 854 25.22 19.8 67.7 24 -1.4 29.5
13:10 1025 30.27 854 25.22 19.3 66.8 26 -0.7 30.7
13:15 1025 30.27 854 25.22 18.7 65.6 26 -1.1 30
13:20 1025 30.27 854 25.22 19.6 67.2 24 -1.4 29.4
13:25 1024 30.24 854 25.22 19.7 67.4 24 -1.3 29.7
13:30 1024 30.24 854 25.22 20.2 68.4 23 -1.6 29
13:35 1024 30.24 854 25.22 20.5 68.8 23 -1.4 29.4
13:40 1024 30.24 854 25.22 19.3 66.8 25 -1.3 29.7
13:45 1024 30.24 854 25.22 19.9 67.7 23 -1.7 29
13:50 1024 30.24 854 25.22 19.9 67.7 24 -0.9 30.3
13:55 1024 30.24 853 25.19 19 66.1 24 -2.1 28.2
14:00 1024 30.24 853 25.19 19.7 67.5 23 -1.8 28.7
14:05 1024 30.24 853 25.19 19.2 66.5 24 -1.7 28.9
14:10 1024 30.24 853 25.19 19.6 67.3 23 -1.8 28.7
14:15 1024 30.24 853 25.19 19.5 67 24 -1.3 29.6
14:20 1024 30.24 853 25.19 19.7 67.4 24 -1.5 29.3
14:25 1024 30.24 853 25.19 19.7 67.4 24 -1.1 30
14:30 1024 30.24 853 25.19 19.4 66.9 24 -1.4 29.4
14:35 1024 30.24 853 25.19 19.8 67.6 24 -1.1 30.1
14:40 1024 30.24 853 25.19 20.2 68.4 24 -1 30.1
14:45 1024 30.24 853 25.19 19.9 67.8 25 -0.3 31.4
14:50 1024 30.24 853 25.19 19 66.2 26 -0.8 30.5
14:55 1024 30.24 853 25.19 19.7 67.5 24 -1.1 29.9
15:00 1024 30.24 853 25.19 20.3 68.5 23 -1.2 29.8
15:05 1024 30.24 853 25.19 20.4 68.7 23 -1 30.2
15:10 1024 30.24 853 25.19 20.3 68.5 23 -1.1 30
15:15 1024 30.24 853 25.19 20.7 69.2 24 -0.7 30.7
15:20 1024 30.24 853 25.19 20.6 69.1 24 -0.5 31
15:25 1024 30.24 853 25.19 20.1 68.2 24 -0.7 30.7
15:30 1024 30.24 853 25.19 20.2 68.3 25 -0.1 31.9
15:35 1024 30.24 853 25.19 19.6 67.3 26 -0.4 31.4
15:40 1024 30.24 853 25.19 19.9 67.7 25 -0.6 30.9
15:45 1024 30.24 853 25.19 20 68 25 -0.5 31.1
15:50 1024 30.24 853 25.19 20.1 68.1 25 -0.5 31.1
15:55 1024 30.24 853 25.19 19.8 67.6 26 -0.3 31.5
16:00 1024 30.24 853 25.19 19.5 67.1 28 0.6 33
16:05 1024 30.24 853 25.19 19.6 67.2 25 -0.9 30.4
16:10 1024 30.24 853 25.19 19.7 67.5 25 -0.7 30.7
16:15 1024 30.24 853 25.19 19.7 67.4 25 -0.7 30.8
16:20 1024 30.24 853 25.19 19.6 67.4 25 -0.5 31
16:25 1024 30.24 853 25.19 19.5 67.1 25 -0.9 30.4
16:30 1024 30.24 853 25.19 19.4 66.9 25 -0.8 30.6
16:35 1024 30.24 853 25.19 19 66.2 25 -1 30.1
16:40 1024 30.24 853 25.19 19 66.3 25 -1.1 30
16:45 1024 30.24 853 25.19 18.7 65.6 30 0.7 33.3
16:50 1024 30.24 853 25.19 18.3 65 27 -0.9 30.4
16:55 1024 30.24 853 25.19 17.9 64.2 33 1.4 34.5
17:00 1024 30.24 853 25.19 17 62.7 35 1.8 35.2
17:05 1024 30.24 853 25.19 15.9 60.7 41 2.8 37.1
17:10 1024 30.24 853 25.19 15.1 59.2 41 2.2 35.9
17:15 1024 30.24 853 25.19 14.7 58.4 43 2.4 36.3
17:20 1024 30.24 853 25.19 14.3 57.7 42 1.6 35
17:25 1024 30.24 853 25.19 14.2 57.5 41 1.3 34.3
17:30 1024 30.24 853 25.19 13.8 56.9 43 1.6 34.9
17:35 1024 30.24 853 25.19 13.3 56 45 1.6 34.9
17:40 1024 30.24 853 25.19 13.1 55.5 45 1.6 34.9
17:45 1024 30.24 853 25.19 12.7 54.9 46 1.6 34.8
17:50 1024 30.24 853 25.19 12.4 54.4 45 0.9 33.5
17:55 1024 30.24 853 25.19 12.4 54.2 46 1.2 34.2
18:00 1024 30.24 853 25.19 11.9 53.4 47 1.1 34
18:05 1024 30.24 854 25.22 11.6 52.9 47 0.7 33.2
18:10 1024 30.24 854 25.22 11.8 53.2 44 0.1 32.1
18:15 1024 30.24 854 25.22 12.3 54.2 43 0.1 32.2
18:20 1024 30.24 854 25.22 12.7 54.8 42 0.3 32.6
18:25 1024 30.24 854 25.22 12.6 54.6 43 0.5 32.9
18:30 1024 30.24 854 25.22 12.3 54.2 43 0.1 32.1
18:35 1024 30.24 854 25.22 12.3 54.1 44 0.5 32.9
18:40 1025 30.27 854 25.22 11.6 52.8 47 0.6 33.1
18:45 1025 30.27 854 25.22 11.5 52.7 44 -0.3 31.5
18:50 1025 30.27 854 25.22 11.9 53.5 43 -0.2 31.6
18:55 1025 30.27 854 25.22 12.1 53.8 42 -0.2 31.6
19:00 1025 30.27 854 25.22 12 53.6 43 -0 32
19:05 1025 30.27 854 25.22 11.6 52.9 45 0 32.1
19:10 1025 30.27 854 25.22 11.2 52.2 46 0.1 32.2
19:15 1025 30.27 854 25.22 10.9 51.6 47 0.1 32.2
19:20 1025 30.27 854 25.22 10.8 51.5 48 0.2 32.4
19:25 1025 30.27 854 25.22 10.4 50.7 49 0.3 32.5
19:30 1025 30.27 854 25.22 10.2 50.3 49 -0 31.9
19:35 1025 30.27 854 25.22 10.1 50.2 49 -0 31.9
19:40 1025 30.27 854 25.22 10.3 50.5 48 -0.2 31.6
19:45 1025 30.27 854 25.22 10.4 50.6 47 -0.3 31.4
19:50 1025 30.27 854 25.22 10.7 51.3 45 -0.7 30.8
19:55 1025 30.27 854 25.22 11.2 52.1 44 -0.6 31
20:00 1025 30.27 854 25.22 11.4 52.5 43 -0.5 31.1
20:05 1025 30.27 854 25.22 11.3 52.3 44 -0.5 31
20:10 1025 30.27 854 25.22 11.3 52.4 44 -0.6 31
20:15 1025 30.27 854 25.22 11.3 52.3 43 -0.8 30.6
20:20 1025 30.27 854 25.22 11.2 52.2 44 -0.5 31
20:25 1025 30.27 854 25.22 11 51.7 45 -0.6 30.9
20:30 1025 30.27 854 25.22 10.9 51.5 45 -0.7 30.8
20:35 1025 30.27 854 25.22 10.9 51.6 45 -0.7 30.8
20:40 1025 30.27 854 25.22 10.6 51.1 46 -0.6 30.9
20:45 1025 30.27 854 25.22 10.7 51.3 44 -1 30.2
20:50 1025 30.27 854 25.22 11 51.7 44 -0.7 30.7
20:55 1025 30.27 854 25.22 10.8 51.5 45 -0.7 30.7
21:00 1025 30.27 854 25.22 10.4 50.7 46 -0.6 30.9
21:05 1025 30.27 854 25.22 10.1 50.2 47 -0.7 30.8
21:10 1025 30.27 854 25.22 9.9 49.9 48 -0.6 31
21:15 1025 30.27 854 25.22 10 50 47 -0.6 30.9
21:20 1025 30.27 855 25.25 9.9 49.8 47 -0.7 30.7
21:25 1025 30.27 855 25.25 9.8 49.6 48 -0.7 30.8
21:30 1025 30.27 855 25.25 9.8 49.7 47 -0.8 30.5
21:35 1026 30.3 855 25.25 10 50.1 47 -0.7 30.7
21:40 1026 30.3 855 25.25 10.1 50.2 46 -1 30.3
21:45 1026 30.3 855 25.25 10.2 50.3 46 -0.9 30.3
21:50 1026 30.3 855 25.25 10.3 50.5 45 -1 30.1
21:55 1026 30.3 855 25.25 10.7 51.3 44 -1.1 30
22:00 1026 30.3 855 25.25 11 51.7 43 -1 30.1
22:05 1026 30.3 855 25.25 11.1 51.9 43 -0.9 30.3
22:10 1026 30.3 855 25.25 11.1 51.9 43 -1 30.3
22:15 1026 30.3 855 25.25 10.8 51.4 44 -0.9 30.3
22:20 1026 30.3 855 25.25 10.6 51.1 45 -0.9 30.4
22:25 1026 30.3 855 25.25 10.2 50.3 46 -0.8 30.6
22:30 1026 30.3 855 25.25 10.1 50.2 45 -1.1 30
22:35 1026 30.3 855 25.25 9.9 49.9 47 -0.7 30.7
22:40 1026 30.3 855 25.25 9.5 49.1 48 -1 30.2
22:45 1026 30.3 855 25.25 9.4 48.9 48 -1 30.2
22:50 1026 30.3 855 25.25 9.4 49 47 -1.2 29.9
22:55 1026 30.3 855 25.25 9.6 49.3 47 -1.1 30
23:00 1026 30.3 855 25.25 9.6 49.2 47 -1 30.2
23:05 1026 30.3 855 25.25 9.4 48.9 48 -0.9 30.4
23:10 1026 30.3 855 25.25 9.1 48.4 49 -1 30.3
23:15 1026 30.3 855 25.25 8.7 47.7 51 -0.8 30.6
23:20 1026 30.3 855 25.25 8.1 46.5 53 -0.8 30.5
23:25 1026 30.3 856 25.28 7.8 46.1 53 -1.2 29.8
23:30 1026 30.3 856 25.28 8.6 47.4 50 -1.2 29.8
23:35 1026 30.3 856 25.28 8.9 48.1 49 -1.2 29.9
23:40 1026 30.3 856 25.28 9.3 48.7 49 -0.9 30.4
23:45 1026 30.3 856 25.28 9.5 49.1 48 -0.8 30.5
23:50 1026 30.3 856 25.28 9.4 48.9 49 -0.7 30.7
23:55 1027 30.33 856 25.28 9.1 48.3 50 -0.7 30.7
24:00 1027 30.33 856 25.28 9 48.1 50 -0.9 30.4